createdAt,value
2023-02-02T05:00:42.129Z,94.37
2023-02-02T05:01:41.963Z,94.37
2023-02-02T05:02:41.928Z,94.43
2023-02-02T05:03:41.934Z,94.43
2023-02-02T05:04:42.609Z,94.43
2023-02-02T05:05:41.922Z,94.43
2023-02-02T05:06:41.913Z,94.43
2023-02-02T05:07:42.012Z,94.53
2023-02-02T05:08:41.874Z,94.53
2023-02-02T05:09:41.927Z,94.63
2023-02-02T05:10:48.907Z,94.53
2023-02-02T05:11:41.780Z,94.53
2023-02-02T05:12:41.787Z,94.63
2023-02-02T05:13:41.763Z,94.63
2023-02-02T05:14:50.320Z,94.63
2023-02-02T05:15:41.735Z,94.84
2023-02-02T05:16:41.797Z,94.84
2023-02-02T05:17:41.723Z,94.84
2023-02-02T05:18:41.697Z,94.84
2023-02-02T05:19:41.720Z,94.84
2023-02-02T05:20:41.686Z,94.84
2023-02-02T05:21:41.663Z,95.04
2023-02-02T05:22:41.656Z,95.04
2023-02-02T05:23:41.623Z,95.04
2023-02-02T05:24:41.699Z,95.15
2023-02-02T05:25:41.646Z,95.04
2023-02-02T05:26:41.626Z,94.94
2023-02-02T05:27:41.568Z,94.94
2023-02-02T05:28:48.605Z,94.84
2023-02-02T05:29:41.616Z,94.73
2023-02-02T05:30:41.637Z,94.84
2023-02-02T05:31:41.585Z,94.84
2023-02-02T05:32:41.558Z,94.73
2023-02-02T05:33:41.530Z,94.63
2023-02-02T05:34:41.571Z,94.63
2023-02-02T05:35:41.504Z,94.63
2023-02-02T05:36:41.540Z,94.84
2023-02-02T05:37:41.458Z,94.73
2023-02-02T05:38:41.466Z,94.94
2023-02-02T05:39:41.473Z,94.84
2023-02-02T05:40:41.471Z,94.84
2023-02-02T05:41:41.394Z,94.84
2023-02-02T05:42:41.413Z,94.73
2023-02-02T05:43:41.373Z,94.94
2023-02-02T05:44:41.409Z,94.94
2023-02-02T05:45:41.414Z,94.94
2023-02-02T05:46:41.367Z,94.94
2023-02-02T05:47:41.321Z,95.04
2023-02-02T05:48:41.340Z,95.04
2023-02-02T05:49:41.309Z,95.04
2023-02-02T05:50:41.341Z,94.94
2023-02-02T05:51:41.279Z,94.94
2023-02-02T05:52:41.282Z,94.84
2023-02-02T05:53:41.252Z,94.84
2023-02-02T05:54:41.249Z,94.84
2023-02-02T05:55:41.263Z,95.04
2023-02-02T05:56:41.238Z,95.04
2023-02-02T05:57:41.198Z,94.84
2023-02-02T05:58:41.205Z,94.84
2023-02-02T05:59:41.185Z,94.94
2023-02-02T06:00:41.308Z,95.15
2023-02-02T06:01:41.148Z,95.15
2023-02-02T06:02:41.184Z,95.36
2023-02-02T06:03:41.224Z,95.29
2023-02-02T06:04:41.131Z,95.40
2023-02-02T06:05:41.125Z,95.56
2023-02-02T06:06:41.109Z,95.29
2023-02-02T06:07:41.070Z,95.50
2023-02-02T06:08:41.085Z,95.40
2023-02-02T06:09:41.045Z,95.61
2023-02-02T06:10:41.125Z,95.71
2023-02-02T06:11:48.027Z,95.40
2023-02-02T06:12:41.013Z,95.25
2023-02-02T06:13:48.010Z,95.29
2023-02-02T06:14:40.988Z,95.36
2023-02-02T06:15:48.044Z,95.40
2023-02-02T06:16:40.973Z,95.36
2023-02-02T06:17:40.970Z,95.29
2023-02-02T06:18:40.946Z,95.40
2023-02-02T06:19:40.910Z,95.40
2023-02-02T06:20:41.004Z,95.46
2023-02-02T06:21:40.892Z,95.61
2023-02-02T06:22:40.915Z,95.71
2023-02-02T06:23:40.891Z,95.61
2023-02-02T06:24:40.915Z,95.61
2023-02-02T06:25:40.950Z,95.56
2023-02-02T06:26:40.893Z,95.56
2023-02-02T06:27:40.845Z,95.61
2023-02-02T06:28:40.844Z,95.56
2023-02-02T06:29:40.861Z,95.67
2023-02-02T06:30:42.541Z,95.77
2023-02-02T06:31:40.907Z,95.67
2023-02-02T06:32:40.803Z,95.77
2023-02-02T06:33:40.739Z,95.77
2023-02-02T06:34:40.743Z,95.87
2023-02-02T06:35:40.769Z,95.87
2023-02-02T06:36:40.733Z,95.98
2023-02-02T06:37:40.681Z,96.08
2023-02-02T06:38:40.786Z,96.80
2023-02-02T06:39:40.658Z,96.39
2023-02-02T06:40:40.728Z,96.29
2023-02-02T06:41:40.658Z,96.91
2023-02-02T06:42:40.647Z,96.49
2023-02-02T06:43:40.633Z,97.11
2023-02-02T06:44:40.617Z,96.49
2023-02-02T06:45:40.626Z,96.59
2023-02-02T06:46:41.396Z,95.98
2023-02-02T06:47:40.604Z,96.08
2023-02-02T06:48:40.576Z,96.29
2023-02-02T06:49:40.583Z,96.39
2023-02-02T06:50:40.621Z,96.59
2023-02-02T06:51:40.512Z,96.80
2023-02-02T06:52:40.792Z,96.91
2023-02-02T06:53:40.552Z,97.01
2023-02-02T06:54:40.493Z,97.11
2023-02-02T06:55:40.528Z,97.11
2023-02-02T06:56:40.492Z,97.11
2023-02-02T06:57:40.445Z,97.11
2023-02-02T06:58:40.527Z,97.22
2023-02-02T06:59:40.465Z,97.22
2023-02-02T07:00:40.436Z,97.11
2023-02-02T07:01:40.444Z,97.11
2023-02-02T07:02:40.386Z,97.26
2023-02-02T07:03:40.403Z,97.22
2023-02-02T07:04:40.457Z,97.36
2023-02-02T07:05:40.380Z,97.47
2023-02-02T07:06:40.328Z,97.47
2023-02-02T07:07:40.401Z,97.47
2023-02-02T07:08:40.336Z,97.47
2023-02-02T07:09:40.369Z,97.53
2023-02-02T07:11:12.758Z,97.42
2023-02-02T07:11:42.515Z,97.53
2023-02-02T07:12:40.346Z,97.63
2023-02-02T07:13:40.297Z,97.53
2023-02-02T07:14:40.245Z,97.42
2023-02-02T07:15:40.743Z,97.42
2023-02-02T07:16:40.189Z,97.42
2023-02-02T07:17:40.196Z,97.42
2023-02-02T07:18:40.253Z,97.42
2023-02-02T07:19:40.174Z,97.42
2023-02-02T07:20:40.132Z,97.42
2023-02-02T07:21:40.233Z,97.42
2023-02-02T07:22:40.178Z,97.32
2023-02-02T07:23:40.134Z,97.42
2023-02-02T07:24:48.624Z,97.53
2023-02-02T07:25:43.535Z,97.63
2023-02-02T07:26:40.146Z,97.74
2023-02-02T07:27:40.079Z,97.94
2023-02-02T07:28:40.020Z,97.94
2023-02-02T07:29:40.049Z,97.94
2023-02-02T07:30:40.041Z,98.25
2023-02-02T07:31:40.183Z,98.25
2023-02-02T07:32:39.972Z,98.35
2023-02-02T07:33:39.990Z,98.35
2023-02-02T07:34:39.963Z,98.46
2023-02-02T07:35:39.968Z,98.56
2023-02-02T07:36:40.695Z,98.66
2023-02-02T07:37:40.121Z,98.56
2023-02-02T07:38:39.902Z,98.56
2023-02-02T07:39:39.908Z,98.66
2023-02-02T07:40:39.874Z,98.66
2023-02-02T07:41:39.901Z,98.66
2023-02-02T07:42:39.928Z,98.66
2023-02-02T07:43:39.846Z,98.77
2023-02-02T07:44:39.816Z,98.66
2023-02-02T07:45:40.225Z,98.77
2023-02-02T07:46:39.819Z,98.87
2023-02-02T07:47:39.796Z,98.87
2023-02-02T07:48:40.002Z,98.97
2023-02-02T07:49:39.796Z,99.08
2023-02-02T07:50:39.753Z,99.08
2023-02-02T07:51:41.667Z,99.08
2023-02-02T07:52:39.722Z,98.83
2023-02-02T07:53:40.538Z,98.83
2023-02-02T07:54:40.403Z,98.62
2023-02-02T07:55:39.702Z,98.72
2023-02-02T07:56:39.672Z,98.62
2023-02-02T07:57:39.675Z,98.41
2023-02-02T07:58:47.181Z,98.21
2023-02-02T07:59:48.837Z,98.00
2023-02-02T08:00:47.225Z,97.89
2023-02-02T08:01:47.210Z,98.00
2023-02-02T08:02:49.213Z,97.79
2023-02-02T08:03:39.605Z,97.59
2023-02-02T08:04:39.604Z,97.69
2023-02-02T08:05:39.747Z,97.59
2023-02-02T08:06:39.564Z,97.38
2023-02-02T08:07:39.543Z,97.07
2023-02-02T08:08:39.513Z,96.92
2023-02-02T08:09:39.523Z,97.02
2023-02-02T08:10:39.545Z,96.92
2023-02-02T08:11:39.511Z,96.72
2023-02-02T08:12:39.486Z,96.30
2023-02-02T08:13:39.464Z,96.30
2023-02-02T08:14:39.433Z,96.20
2023-02-02T08:15:39.486Z,96.30
2023-02-02T08:16:39.413Z,96.30
2023-02-02T08:17:39.440Z,95.99
2023-02-02T08:18:39.423Z,95.89
2023-02-02T08:19:39.386Z,95.78
2023-02-02T08:20:39.603Z,95.78
2023-02-02T08:21:39.378Z,95.57
2023-02-02T08:22:39.342Z,95.17
2023-02-02T08:23:39.332Z,95.06
2023-02-02T08:24:39.300Z,95.27
2023-02-02T08:25:39.340Z,95.12
2023-02-02T08:26:39.985Z,95.02
2023-02-02T08:27:39.304Z,94.50
2023-02-02T08:28:39.266Z,94.29
2023-02-02T08:29:39.304Z,93.98
2023-02-02T08:30:39.267Z,93.78
2023-02-02T08:31:39.351Z,93.68
2023-02-02T08:32:39.249Z,93.47
2023-02-02T08:33:39.739Z,93.26
2023-02-02T08:34:39.190Z,93.37
2023-02-02T08:35:39.189Z,93.37
2023-02-02T08:36:39.167Z,93.26
2023-02-02T08:37:39.229Z,93.16
2023-02-02T08:38:39.135Z,93.47
2023-02-02T08:39:39.147Z,93.47
2023-02-02T08:40:39.110Z,93.37
2023-02-02T08:41:39.115Z,93.26
2023-02-02T08:42:39.066Z,93.37
2023-02-02T08:43:39.106Z,93.37
2023-02-02T08:44:42.846Z,93.26
2023-02-02T08:46:02.799Z,93.16
2023-02-02T08:46:40.075Z,93.26
2023-02-02T08:47:39.036Z,93.26
2023-02-02T08:48:39.043Z,93.26
2023-02-02T08:49:38.996Z,92.95
2023-02-02T08:50:46.483Z,92.80
2023-02-02T08:51:40.712Z,92.60
2023-02-02T08:52:38.946Z,92.60
2023-02-02T08:53:39.047Z,92.40
2023-02-02T08:54:38.935Z,92.29
2023-02-02T08:55:38.947Z,92.08
2023-02-02T08:56:38.906Z,92.08
2023-02-02T08:57:38.901Z,92.19
2023-02-02T08:58:38.918Z,91.88
2023-02-02T08:59:38.959Z,92.19
2023-02-02T09:00:38.850Z,91.88
2023-02-02T09:01:38.862Z,91.98
2023-02-02T09:02:38.819Z,92.29
2023-02-02T09:03:38.914Z,92.19
2023-02-02T09:04:38.823Z,92.19
2023-02-02T09:05:38.808Z,92.08
2023-02-02T09:06:38.807Z,92.19
2023-02-02T09:07:38.776Z,91.98
2023-02-02T09:08:38.901Z,92.08
2023-02-02T09:09:38.737Z,92.08
2023-02-02T09:10:38.742Z,92.08
2023-02-02T09:11:38.745Z,92.19
2023-02-02T09:12:38.698Z,92.19
2023-02-02T09:13:38.763Z,92.29
2023-02-02T09:14:38.687Z,92.29
2023-02-02T09:15:38.692Z,92.19
2023-02-02T09:16:38.724Z,92.40
2023-02-02T09:17:38.667Z,92.50
2023-02-02T09:18:38.665Z,92.40
2023-02-02T09:19:38.627Z,92.50
2023-02-02T09:20:38.605Z,92.50
2023-02-02T09:21:38.625Z,92.60
2023-02-02T09:22:38.548Z,92.70
2023-02-02T09:23:38.703Z,93.01
2023-02-02T09:24:38.565Z,92.91
2023-02-02T09:25:38.533Z,93.22
2023-02-02T09:26:41.908Z,93.32
2023-02-02T09:27:38.526Z,93.22
2023-02-02T09:28:39.378Z,93.22
2023-02-02T09:29:38.477Z,93.53
2023-02-02T09:30:38.507Z,93.63
2023-02-02T09:31:38.557Z,93.84
2023-02-02T09:32:38.444Z,93.94
2023-02-02T09:33:38.561Z,94.25
2023-02-02T09:34:40.119Z,94.04
2023-02-02T09:35:38.421Z,93.53
2023-02-02T09:36:38.396Z,93.73
2023-02-02T09:37:38.380Z,93.84
2023-02-02T09:38:38.590Z,94.15
2023-02-02T09:39:38.360Z,94.25
2023-02-02T09:40:38.332Z,94.42
2023-02-02T09:41:38.353Z,94.21
2023-02-02T09:42:38.305Z,94.00
2023-02-02T09:43:38.308Z,93.69
2023-02-02T09:44:45.800Z,93.49
2023-02-02T09:45:38.340Z,93.69
2023-02-02T09:46:45.735Z,93.69
2023-02-02T09:47:45.768Z,93.38
2023-02-02T09:48:45.736Z,93.28
2023-02-02T09:49:45.770Z,93.28
2023-02-02T09:50:45.700Z,93.38
2023-02-02T09:51:38.188Z,93.49
2023-02-02T09:52:38.167Z,93.49
2023-02-02T09:53:46.090Z,93.28
2023-02-02T09:54:39.247Z,93.07
2023-02-02T09:55:38.184Z,92.86
2023-02-02T09:56:38.109Z,92.86
2023-02-02T09:57:38.190Z,93.07
2023-02-02T09:58:38.095Z,93.28
2023-02-02T09:59:38.208Z,93.49
2023-02-02T10:00:38.083Z,93.59
2023-02-02T10:01:38.138Z,93.69
2023-02-02T10:02:38.036Z,94.10
2023-02-02T10:03:38.125Z,94.62
2023-02-02T10:04:38.104Z,94.82
2023-02-02T10:05:38.023Z,95.24
2023-02-02T10:06:37.990Z,95.24
2023-02-02T10:07:38.021Z,95.65
2023-02-02T10:08:37.970Z,95.96
2023-02-02T10:09:38.040Z,96.48
2023-02-02T10:10:38.074Z,96.48
2023-02-02T10:11:37.979Z,96.69
2023-02-02T10:12:37.894Z,96.99
2023-02-02T10:13:37.937Z,96.62
2023-02-02T10:14:37.944Z,97.14
2023-02-02T10:15:37.939Z,97.34
2023-02-02T10:16:37.846Z,97.76
2023-02-02T10:17:37.923Z,98.38
2023-02-02T10:18:37.826Z,98.58
2023-02-02T10:19:37.913Z,98.69
2023-02-02T10:20:37.821Z,99.10
2023-02-02T10:21:37.821Z,99.31
2023-02-02T10:22:37.772Z,99.46
2023-02-02T10:23:37.839Z,99.56
2023-02-02T10:24:37.800Z,99.56
2023-02-02T10:25:37.767Z,99.56
2023-02-02T10:26:37.780Z,99.56
2023-02-02T10:27:37.789Z,99.77
2023-02-02T10:28:37.708Z,99.99
2023-02-02T10:29:48.427Z,99.99
2023-02-02T10:30:38.698Z,99.99
2023-02-02T10:31:37.782Z,99.98
2023-02-02T10:32:37.637Z,99.99
2023-02-02T10:33:37.669Z,99.82
2023-02-02T10:34:37.686Z,99.99
2023-02-02T10:35:37.635Z,99.99
2023-02-02T10:36:37.595Z,99.99
2023-02-02T10:37:37.590Z,99.98
2023-02-02T10:38:37.913Z,99.99
2023-02-02T10:39:38.028Z,99.99
2023-02-02T10:40:37.536Z,99.99
2023-02-02T10:41:37.566Z,99.99
2023-02-02T10:42:37.523Z,99.99
2023-02-02T10:43:37.519Z,99.99
2023-02-02T10:44:37.495Z,99.99
2023-02-02T10:45:37.584Z,99.99
2023-02-02T10:46:37.458Z,99.99
2023-02-02T10:47:37.472Z,99.99
2023-02-02T10:48:37.471Z,99.99
2023-02-02T10:49:37.480Z,99.99
2023-02-02T10:50:37.774Z,99.99
2023-02-02T10:51:37.446Z,99.99
2023-02-02T10:52:37.459Z,99.99
2023-02-02T10:53:37.362Z,99.99
2023-02-02T10:54:53.882Z,99.99
2023-02-02T10:55:39.028Z,99.99
2023-02-02T10:56:37.348Z,99.99
2023-02-02T10:57:37.322Z,99.99
2023-02-02T10:58:37.328Z,99.99
2023-02-02T10:59:37.278Z,99.99
2023-02-02T11:00:37.330Z,99.99
2023-02-02T11:01:37.543Z,99.99
2023-02-02T11:02:37.317Z,99.99
2023-02-02T11:03:37.250Z,99.99
2023-02-02T11:04:37.238Z,99.99
2023-02-02T11:05:37.255Z,99.99
2023-02-02T11:06:37.204Z,99.99
2023-02-02T11:07:37.240Z,99.99
2023-02-02T11:08:37.195Z,99.99
2023-02-02T11:09:37.177Z,99.99
2023-02-02T11:10:37.252Z,99.99
2023-02-02T11:11:37.116Z,99.99
2023-02-02T11:12:37.179Z,99.99
2023-02-02T11:13:37.747Z,99.99
2023-02-02T11:14:44.510Z,99.99
2023-02-02T11:16:47.390Z,99.99
2023-02-02T11:17:47.240Z,99.99
2023-02-02T11:18:47.473Z,99.99
2023-02-02T11:19:47.219Z,99.99
2023-02-02T11:20:47.230Z,99.99
2023-02-02T11:21:47.200Z,99.99
2023-02-02T11:22:47.195Z,99.99
2023-02-02T11:23:48.835Z,99.99
2023-02-02T11:24:47.296Z,99.99
2023-02-02T11:25:47.158Z,99.99
2023-02-02T11:26:47.246Z,99.99
2023-02-02T11:27:47.123Z,99.99
2023-02-02T11:28:47.127Z,99.99
2023-02-02T11:29:47.096Z,99.99
2023-02-02T11:30:47.199Z,99.99
2023-02-02T11:31:47.136Z,99.99
2023-02-02T11:32:47.068Z,99.99
2023-02-02T11:33:47.038Z,99.99
2023-02-02T11:34:47.056Z,99.99
2023-02-02T11:35:47.055Z,99.99
2023-02-02T11:36:47.016Z,99.99
2023-02-02T11:37:47.011Z,99.99
2023-02-02T11:38:47.046Z,99.99
2023-02-02T11:39:46.965Z,99.99
2023-02-02T11:40:47.044Z,99.99
2023-02-02T11:41:46.944Z,99.99
2023-02-02T11:42:46.963Z,99.99
2023-02-02T11:43:46.923Z,99.99
2023-02-02T11:44:46.951Z,99.99
2023-02-02T11:45:46.974Z,99.99
2023-02-02T11:46:46.994Z,99.99
2023-02-02T11:47:46.880Z,99.99
2023-02-02T11:48:46.864Z,99.99
2023-02-02T11:49:46.832Z,99.99
2023-02-02T11:50:46.897Z,99.99
2023-02-02T11:51:46.805Z,99.99
2023-02-02T11:52:46.812Z,99.99
2023-02-02T11:53:46.793Z,99.99
2023-02-02T11:54:46.798Z,99.99
2023-02-02T11:55:47.553Z,99.99
2023-02-02T11:56:46.752Z,99.99
2023-02-02T11:57:46.721Z,99.99
2023-02-02T11:58:46.729Z,99.99
2023-02-02T11:59:46.716Z,99.99
2023-02-02T12:00:46.711Z,99.99
2023-02-02T12:01:46.891Z,99.99
2023-02-02T12:02:46.673Z,99.99
2023-02-02T12:03:46.705Z,99.99
2023-02-02T12:04:46.663Z,99.99
2023-02-02T12:05:46.644Z,99.99
2023-02-02T12:06:46.679Z,99.99
2023-02-02T12:07:46.598Z,99.99
2023-02-02T12:08:46.608Z,99.99
2023-02-02T12:09:46.588Z,99.99
2023-02-02T12:10:46.580Z,99.99
2023-02-02T12:11:46.597Z,99.99
2023-02-02T12:12:46.555Z,99.99
2023-02-02T12:13:46.523Z,99.99
2023-02-02T12:14:46.516Z,99.99
2023-02-02T12:15:46.495Z,99.99
2023-02-02T12:16:46.577Z,99.99
2023-02-02T12:17:46.467Z,99.99
2023-02-02T12:18:46.485Z,99.99
2023-02-02T12:19:46.466Z,99.99
2023-02-02T12:20:46.463Z,99.99
2023-02-02T12:21:46.475Z,99.99
2023-02-02T12:22:46.437Z,99.99
2023-02-02T12:23:46.400Z,99.99
2023-02-02T12:24:46.414Z,99.99
2023-02-02T12:25:46.368Z,99.99
2023-02-02T12:26:46.489Z,99.99
2023-02-02T12:27:46.346Z,99.99
2023-02-02T12:28:46.343Z,99.99
2023-02-02T12:29:46.318Z,99.99
2023-02-02T12:30:46.373Z,99.99
2023-02-02T12:31:46.384Z,99.99
2023-02-02T12:32:46.310Z,99.99
2023-02-02T12:33:46.270Z,99.99
2023-02-02T12:34:46.318Z,99.99
2023-02-02T12:35:46.245Z,99.99
2023-02-02T12:36:46.942Z,99.99
2023-02-02T12:37:46.216Z,99.99
2023-02-02T12:38:46.224Z,99.99
2023-02-02T12:39:46.184Z,99.99
2023-02-02T12:40:46.343Z,99.99
2023-02-02T12:41:46.162Z,99.99
2023-02-02T12:42:46.223Z,99.99
2023-02-02T12:43:46.126Z,99.99
2023-02-02T12:44:46.156Z,99.99
2023-02-02T12:45:46.220Z,99.99
2023-02-02T12:46:46.423Z,99.99
2023-02-02T12:47:46.089Z,99.99
2023-02-02T12:48:46.106Z,99.99
2023-02-02T12:49:46.061Z,99.99
2023-02-02T12:50:46.089Z,99.99
2023-02-02T12:51:46.022Z,99.99
2023-02-02T12:52:46.780Z,99.99
2023-02-02T12:53:45.998Z,99.99
2023-02-02T12:54:48.490Z,99.99
2023-02-02T12:55:46.976Z,99.99
2023-02-02T12:56:45.997Z,99.99
2023-02-02T12:57:45.956Z,99.99
2023-02-02T12:58:46.297Z,99.99
2023-02-02T12:59:45.929Z,99.99
2023-02-02T13:00:45.984Z,99.99
2023-02-02T13:01:45.901Z,99.99
2023-02-02T13:02:45.905Z,99.99
2023-02-02T13:03:45.881Z,99.99
2023-02-02T13:04:46.122Z,99.99
2023-02-02T13:05:45.844Z,99.99
2023-02-02T13:06:45.894Z,99.99
2023-02-02T13:07:45.829Z,99.99
2023-02-02T13:08:45.867Z,99.99
2023-02-02T13:09:45.804Z,99.99
2023-02-02T13:10:46.027Z,99.99
2023-02-02T13:11:45.781Z,99.99
2023-02-02T13:12:45.787Z,99.99
2023-02-02T13:13:45.752Z,99.99
2023-02-02T13:14:45.766Z,99.99
2023-02-02T13:15:45.712Z,99.99
2023-02-02T13:16:46.037Z,99.99
2023-02-02T13:17:45.701Z,99.99
2023-02-02T13:18:45.705Z,99.99
2023-02-02T13:19:45.676Z,99.99
2023-02-02T13:20:45.684Z,99.99
2023-02-02T13:21:45.651Z,99.99
2023-02-02T13:22:45.723Z,99.99
2023-02-02T13:23:45.623Z,99.99
2023-02-02T13:24:45.615Z,99.99
2023-02-02T13:25:45.595Z,99.99
2023-02-02T13:26:45.720Z,99.99
2023-02-02T13:27:45.604Z,99.99
2023-02-02T13:28:45.578Z,99.99
2023-02-02T13:29:48.441Z,99.99
2023-02-02T13:30:45.629Z,99.99
2023-02-02T13:31:45.707Z,99.99
2023-02-02T13:32:45.578Z,99.99
2023-02-02T13:33:45.504Z,99.99
2023-02-02T13:34:45.504Z,99.99
2023-02-02T13:35:45.469Z,99.99
2023-02-02T13:36:45.455Z,99.99
2023-02-02T13:37:45.485Z,99.99
2023-02-02T13:38:45.447Z,99.99
2023-02-02T13:39:45.417Z,99.99
2023-02-02T13:40:45.407Z,99.99
2023-02-02T13:41:45.392Z,99.99
2023-02-02T13:42:45.438Z,99.99
2023-02-02T13:43:45.358Z,99.99
2023-02-02T13:44:45.368Z,99.99
2023-02-02T13:45:45.382Z,99.99
2023-02-02T13:46:45.363Z,99.99
2023-02-02T13:47:46.154Z,99.99
2023-02-02T13:48:45.344Z,99.99
2023-02-02T13:49:45.274Z,99.99
2023-02-02T13:50:45.285Z,99.99
2023-02-02T13:51:45.260Z,99.99
2023-02-02T13:52:45.272Z,99.99
2023-02-02T13:53:45.286Z,99.99
2023-02-02T13:54:45.925Z,99.99
2023-02-02T13:55:45.213Z,99.99
2023-02-02T13:56:45.206Z,99.99
2023-02-02T13:57:45.178Z,99.99
2023-02-02T13:58:46.311Z,99.99
2023-02-02T13:59:45.140Z,99.99
2023-02-02T14:00:45.159Z,99.99
2023-02-02T14:01:45.162Z,99.99
2023-02-02T14:02:45.230Z,99.99
2023-02-02T14:03:45.092Z,99.99
2023-02-02T14:04:45.349Z,99.99
2023-02-02T14:05:45.082Z,99.99
2023-02-02T14:06:45.098Z,99.99
2023-02-02T14:07:45.052Z,99.99
2023-02-02T14:08:45.040Z,99.99
2023-02-02T14:09:45.017Z,99.99
2023-02-02T14:10:45.068Z,99.99
2023-02-02T14:11:44.996Z,99.99
2023-02-02T14:12:44.996Z,99.99
2023-02-02T14:13:44.958Z,99.99
2023-02-02T14:14:44.970Z,99.99
2023-02-02T14:15:45.023Z,99.99
2023-02-02T14:16:44.963Z,99.99
2023-02-02T14:17:44.916Z,99.99
2023-02-02T14:18:44.908Z,99.99
2023-02-02T14:19:44.884Z,99.99
2023-02-02T14:20:44.895Z,99.99
2023-02-02T14:21:44.915Z,99.99
2023-02-02T14:22:44.860Z,99.52
2023-02-02T14:23:44.822Z,99.93
2023-02-02T14:24:44.840Z,99.99
2023-02-02T14:25:44.797Z,99.99
2023-02-02T14:26:44.945Z,99.99
2023-02-02T14:27:45.473Z,99.99
2023-02-02T14:28:44.795Z,99.99
2023-02-02T14:29:46.817Z,99.72
2023-02-02T14:30:44.903Z,99.68
2023-02-02T14:31:44.800Z,99.68
2023-02-02T14:32:44.730Z,99.99
2023-02-02T14:33:44.744Z,99.78
2023-02-02T14:34:44.733Z,99.47
2023-02-02T14:35:44.815Z,99.41
2023-02-02T14:36:44.683Z,99.52
2023-02-02T14:37:44.653Z,99.37
2023-02-02T14:38:44.697Z,99.21
2023-02-02T14:39:44.621Z,98.65
2023-02-02T14:40:44.619Z,98.65
2023-02-02T14:41:44.582Z,98.65
2023-02-02T14:42:44.599Z,98.23
2023-02-02T14:43:44.594Z,98.65
2023-02-02T14:44:44.563Z,98.85
2023-02-02T14:45:44.581Z,98.85
2023-02-02T14:46:44.540Z,98.44
2023-02-02T14:47:44.538Z,98.33
2023-02-02T14:48:44.566Z,98.65
2023-02-02T14:49:44.505Z,98.75
2023-02-02T14:50:44.477Z,98.85
2023-02-02T14:51:44.513Z,98.54
2023-02-02T14:52:44.447Z,98.85
2023-02-02T14:53:44.453Z,98.44
2023-02-02T14:54:47.677Z,98.33
2023-02-02T14:55:44.426Z,98.44
2023-02-02T14:56:44.414Z,98.54
2023-02-02T14:57:44.398Z,98.44
2023-02-02T14:58:44.362Z,98.23
2023-02-02T14:59:44.361Z,98.02
2023-02-02T15:00:44.403Z,98.13
2023-02-02T15:01:44.366Z,98.44
2023-02-02T15:02:44.314Z,98.33
2023-02-02T15:03:44.305Z,98.33
2023-02-02T15:04:44.304Z,98.33
2023-02-02T15:05:44.376Z,98.44
2023-02-02T15:06:44.270Z,98.02
2023-02-02T15:07:44.281Z,98.02
2023-02-02T15:08:44.686Z,97.72
2023-02-02T15:09:44.237Z,97.72
2023-02-02T15:10:44.205Z,97.92
2023-02-02T15:11:44.336Z,97.92
2023-02-02T15:12:44.170Z,97.72
2023-02-02T15:13:44.180Z,97.72
2023-02-02T15:14:44.448Z,97.82
2023-02-02T15:15:45.967Z,97.72
2023-02-02T15:16:44.316Z,97.82
2023-02-02T15:17:44.469Z,97.72
2023-02-02T15:18:44.203Z,97.61
2023-02-02T15:19:44.264Z,97.72
2023-02-02T15:20:44.109Z,97.41
2023-02-02T15:21:44.183Z,97.72
2023-02-02T15:22:44.678Z,97.92
2023-02-02T15:23:44.583Z,97.82
2023-02-02T15:24:44.175Z,97.72
2023-02-02T15:25:44.173Z,97.30
2023-02-02T15:26:44.149Z,96.99
2023-02-02T15:27:56.328Z,97.20
2023-02-02T15:28:45.197Z,96.99
2023-02-02T15:29:43.969Z,97.09
2023-02-02T15:30:43.968Z,97.20
2023-02-02T15:31:44.008Z,97.41
2023-02-02T15:32:43.922Z,97.41
2023-02-02T15:33:43.923Z,97.30
2023-02-02T15:34:43.957Z,97.09
2023-02-02T15:35:43.917Z,96.99
2023-02-02T15:36:43.856Z,97.09
2023-02-02T15:37:43.873Z,96.99
2023-02-02T15:38:43.828Z,97.20
2023-02-02T15:39:43.894Z,97.30
2023-02-02T15:40:43.815Z,97.09
2023-02-02T15:41:43.823Z,96.69
2023-02-02T15:42:43.791Z,96.48
2023-02-02T15:43:43.796Z,96.48
2023-02-02T15:44:43.783Z,96.69
2023-02-02T15:45:43.753Z,96.37
2023-02-02T15:46:43.764Z,96.27
2023-02-02T15:47:43.739Z,96.06
2023-02-02T15:48:43.739Z,96.06
2023-02-02T15:49:45.519Z,96.17
2023-02-02T15:50:43.671Z,96.27
2023-02-02T15:51:43.685Z,96.48
2023-02-02T15:52:46.198Z,96.17
2023-02-02T15:53:43.679Z,96.17
2023-02-02T15:54:43.623Z,96.17
2023-02-02T15:55:43.675Z,95.86
2023-02-02T15:56:43.591Z,96.06
2023-02-02T15:57:43.603Z,96.06
2023-02-02T15:58:43.567Z,95.96
2023-02-02T15:59:43.569Z,95.76
2023-02-02T16:00:43.619Z,96.06
2023-02-02T16:01:43.593Z,95.86
2023-02-02T16:02:43.515Z,96.06
2023-02-02T16:03:43.543Z,96.06
2023-02-02T16:04:43.496Z,95.45
2023-02-02T16:05:43.813Z,95.86
2023-02-02T16:06:43.457Z,95.76
2023-02-02T16:07:46.643Z,95.86
2023-02-02T16:08:44.438Z,95.96
2023-02-02T16:09:43.499Z,96.06
2023-02-02T16:10:46.288Z,96.17
2023-02-02T16:11:43.443Z,96.58
2023-02-02T16:12:43.400Z,96.58
2023-02-02T16:13:43.440Z,96.37
2023-02-02T16:14:43.356Z,96.17
2023-02-02T16:15:43.403Z,96.27
2023-02-02T16:16:46.172Z,96.27
2023-02-02T16:17:43.375Z,96.06
2023-02-02T16:18:43.307Z,96.17
2023-02-02T16:19:43.305Z,96.17
2023-02-02T16:20:43.391Z,95.86
2023-02-02T16:21:43.293Z,95.96
2023-02-02T16:22:45.887Z,96.17
2023-02-02T16:23:43.259Z,96.27
2023-02-02T16:24:43.243Z,96.48
2023-02-02T16:25:43.307Z,96.27
2023-02-02T16:26:43.248Z,96.06
2023-02-02T16:27:43.211Z,96.48
2023-02-02T16:28:45.680Z,96.27
2023-02-02T16:29:43.202Z,96.42
2023-02-02T16:30:43.551Z,96.48
2023-02-02T16:31:43.193Z,96.58
2023-02-02T16:32:43.123Z,96.58
2023-02-02T16:33:43.150Z,96.58
2023-02-02T16:34:44.947Z,96.31
2023-02-02T16:35:43.112Z,96.01
2023-02-02T16:36:43.199Z,96.17
2023-02-02T16:37:43.076Z,96.17
2023-02-02T16:38:43.075Z,95.96
2023-02-02T16:39:43.057Z,96.06
2023-02-02T16:40:43.100Z,96.06
2023-02-02T16:41:43.036Z,96.06
2023-02-02T16:42:42.998Z,95.96
2023-02-02T16:43:43.056Z,96.17
2023-02-02T16:44:43.059Z,96.17
2023-02-02T16:45:43.036Z,96.06
2023-02-02T16:46:42.951Z,96.52
2023-02-02T16:47:42.961Z,96.42
2023-02-02T16:48:42.918Z,96.62
2023-02-02T16:49:42.928Z,96.73
2023-02-02T16:50:43.289Z,96.62
2023-02-02T16:51:42.898Z,96.73
2023-02-02T16:52:42.865Z,96.83
2023-02-02T16:53:42.874Z,96.83
2023-02-02T16:54:42.836Z,96.62
2023-02-02T16:55:50.639Z,96.83
2023-02-02T16:56:43.924Z,96.73
2023-02-02T16:57:42.821Z,96.83
2023-02-02T16:58:42.858Z,97.04
2023-02-02T16:59:42.823Z,96.83
2023-02-02T17:00:42.754Z,96.62
2023-02-02T17:01:43.560Z,96.73
2023-02-02T17:02:42.753Z,96.73
2023-02-02T17:03:42.770Z,96.83
2023-02-02T17:04:42.704Z,96.83
2023-02-02T17:05:42.705Z,96.83
2023-02-02T17:06:52.424Z,96.42
2023-02-02T17:07:43.741Z,96.62
2023-02-02T17:08:42.666Z,96.83
2023-02-02T17:09:42.680Z,96.73
2023-02-02T17:10:42.624Z,97.34
2023-02-02T17:11:42.678Z,98.96
2023-02-02T17:12:42.605Z,97.30
2023-02-02T17:13:42.900Z,95.55
2023-02-02T17:14:42.593Z,94.82
2023-02-02T17:15:49.689Z,95.03
2023-02-02T17:16:42.577Z,95.34
2023-02-02T17:17:42.553Z,95.24
2023-02-02T17:18:42.562Z,95.45
2023-02-02T17:19:42.994Z,95.96
2023-02-02T17:20:42.516Z,96.27
2023-02-02T17:21:42.530Z,96.27
2023-02-02T17:22:42.492Z,96.27
2023-02-02T17:23:42.506Z,96.31
2023-02-02T17:24:42.479Z,96.31
2023-02-02T17:25:42.669Z,96.31
2023-02-02T17:26:42.473Z,96.06
2023-02-02T17:27:42.414Z,95.80
2023-02-02T17:28:42.388Z,96.06
2023-02-02T17:29:42.698Z,96.11
2023-02-02T17:30:42.430Z,96.42
2023-02-02T17:31:42.556Z,96.52
2023-02-02T17:32:42.347Z,96.31
2023-02-02T17:33:42.358Z,96.31
2023-02-02T17:34:42.316Z,96.62
2023-02-02T17:35:53.691Z,96.62
2023-02-02T17:36:43.392Z,96.73
2023-02-02T17:37:42.408Z,96.42
2023-02-02T17:38:42.284Z,96.62
2023-02-02T17:39:42.324Z,96.21
2023-02-02T17:40:42.259Z,95.90
2023-02-02T17:41:42.269Z,95.90
2023-02-02T17:42:42.250Z,96.21
2023-02-02T17:43:42.228Z,96.42
2023-02-02T17:44:42.254Z,96.01
2023-02-02T17:45:42.206Z,96.21
2023-02-02T17:46:42.227Z,96.42
2023-02-02T17:47:42.203Z,96.83
2023-02-02T17:48:42.136Z,96.83
2023-02-02T17:49:42.179Z,95.80
2023-02-02T17:50:42.107Z,95.39
2023-02-02T17:51:42.295Z,95.59
2023-02-02T17:52:42.162Z,95.80
2023-02-02T17:53:42.125Z,95.80